sensor_id;sensor_type;location;lat;lon;timestamp;P1;durP1;ratioP1;P2;durP2;ratioP2
42518;SDS011;28147;47.520;18.920;2023-04-01T00:00:51;1.75;;;0.77;;
42518;SDS011;28147;47.520;18.920;2023-04-01T00:03:18;1.73;;;0.88;;
42518;SDS011;28147;47.520;18.920;2023-04-01T00:05:44;1.75;;;1.02;;
42518;SDS011;28147;47.520;18.920;2023-04-01T00:08:10;3.83;;;1.02;;
42518;SDS011;28147;47.520;18.920;2023-04-01T00:10:36;1.45;;;0.80;;
42518;SDS011;28147;47.520;18.920;2023-04-01T00:13:01;1.98;;;0.90;;
42518;SDS011;28147;47.520;18.920;2023-04-01T00:15:27;1.73;;;0.80;;
42518;SDS011;28147;47.520;18.920;2023-04-01T00:17:53;2.63;;;0.85;;
42518;SDS011;28147;47.520;18.920;2023-04-01T00:20:19;1.15;;;0.60;;
42518;SDS011;28147;47.520;18.920;2023-04-01T00:22:45;2.95;;;0.90;;
42518;SDS011;28147;47.520;18.920;2023-04-01T00:25:11;3.17;;;1.27;;
42518;SDS011;28147;47.520;18.920;2023-04-01T00:27:36;1.15;;;0.85;;
42518;SDS011;28147;47.520;18.920;2023-04-01T00:30:02;1.73;;;1.02;;
42518;SDS011;28147;47.520;18.920;2023-04-01T00:36:21;1.38;;;0.90;;
42518;SDS011;28147;47.520;18.920;2023-04-01T00:38:53;2.20;;;0.93;;
42518;SDS011;28147;47.520;18.920;2023-04-01T00:41:19;1.75;;;1.27;;
42518;SDS011;28147;47.520;18.920;2023-04-01T00:44:58;1.92;;;1.10;;
42518;SDS011;28147;47.520;18.920;2023-04-01T00:47:23;5.50;;;1.17;;
42518;SDS011;28147;47.520;18.920;2023-04-01T00:49:52;1.67;;;1.10;;
42518;SDS011;28147;47.520;18.920;2023-04-01T00:52:23;1.77;;;0.95;;
42518;SDS011;28147;47.520;18.920;2023-04-01T00:54:52;2.83;;;1.17;;
42518;SDS011;28147;47.520;18.920;2023-04-01T01:00:59;3.03;;;0.82;;
42518;SDS011;28147;47.520;18.920;2023-04-01T01:03:25;1.48;;;1.00;;
42518;SDS011;28147;47.520;18.920;2023-04-01T01:11:06;2.92;;;1.45;;
42518;SDS011;28147;47.520;18.920;2023-04-01T01:13:39;1.77;;;1.00;;
42518;SDS011;28147;47.520;18.920;2023-04-01T01:41:51;6.10;;;1.23;;
42518;SDS011;28147;47.520;18.920;2023-04-01T01:44:18;2.17;;;1.25;;
42518;SDS011;28147;47.520;18.920;2023-04-01T01:46:44;2.80;;;1.30;;
42518;SDS011;28147;47.520;18.920;2023-04-01T01:49:10;2.53;;;1.27;;
42518;SDS011;28147;47.520;18.920;2023-04-01T01:51:38;2.03;;;1.20;;
42518;SDS011;28147;47.520;18.920;2023-04-01T01:54:04;4.10;;;1.40;;
42518;SDS011;28147;47.520;18.920;2023-04-01T01:56:30;3.70;;;1.15;;
42518;SDS011;28147;47.520;18.920;2023-04-01T01:58:59;2.78;;;1.25;;
42518;SDS011;28147;47.520;18.920;2023-04-01T02:01:29;2.88;;;1.40;;
42518;SDS011;28147;47.520;18.920;2023-04-01T02:03:58;5.35;;;1.60;;
42518;SDS011;28147;47.520;18.920;2023-04-01T02:06:25;2.13;;;1.30;;
42518;SDS011;28147;47.520;18.920;2023-04-01T02:08:56;3.70;;;1.38;;
42518;SDS011;28147;47.520;18.920;2023-04-01T02:11:30;3.20;;;1.50;;
42518;SDS011;28147;47.520;18.920;2023-04-01T02:14:56;2.58;;;1.23;;
42518;SDS011;28147;47.520;18.920;2023-04-01T02:17:30;4.30;;;1.27;;
42518;SDS011;28147;47.520;18.920;2023-04-01T02:20:00;4.32;;;1.20;;
42518;SDS011;28147;47.520;18.920;2023-04-01T02:22:32;3.00;;;0.98;;
42518;SDS011;28147;47.520;18.920;2023-04-01T02:25:02;2.53;;;1.10;;
42518;SDS011;28147;47.520;18.920;2023-04-01T02:27:31;4.88;;;1.52;;
42518;SDS011;28147;47.520;18.920;2023-04-01T02:29:57;3.10;;;1.48;;
42518;SDS011;28147;47.520;18.920;2023-04-01T02:32:49;4.68;;;1.63;;
42518;SDS011;28147;47.520;18.920;2023-04-01T02:35:15;3.13;;;1.73;;
42518;SDS011;28147;47.520;18.920;2023-04-01T02:37:42;7.28;;;3.67;;
42518;SDS011;28147;47.520;18.920;2023-04-01T02:40:11;19.98;;;8.85;;
42518;SDS011;28147;47.520;18.920;2023-04-01T02:42:37;13.82;;;7.75;;
42518;SDS011;28147;47.520;18.920;2023-04-01T02:45:03;18.90;;;9.07;;
42518;SDS011;28147;47.520;18.920;2023-04-01T02:47:29;26.15;;;12.80;;
42518;SDS011;28147;47.520;18.920;2023-04-01T02:49:54;27.85;;;16.00;;
42518;SDS011;28147;47.520;18.920;2023-04-01T02:52:26;23.92;;;12.38;;
42518;SDS011;28147;47.520;18.920;2023-04-01T02:54:53;22.42;;;10.50;;
42518;SDS011;28147;47.520;18.920;2023-04-01T02:57:19;18.73;;;9.43;;
42518;SDS011;28147;47.520;18.920;2023-04-01T02:59:45;17.05;;;10.32;;
42518;SDS011;28147;47.520;18.920;2023-04-01T03:02:10;11.85;;;6.50;;
42518;SDS011;28147;47.520;18.920;2023-04-01T03:04:36;9.35;;;3.92;;
42518;SDS011;28147;47.520;18.920;2023-04-01T03:07:01;12.45;;;7.07;;
42518;SDS011;28147;47.520;18.920;2023-04-01T03:09:27;12.40;;;5.95;;
42518;SDS011;28147;47.520;18.920;2023-04-01T03:11:53;11.77;;;5.90;;
42518;SDS011;28147;47.520;18.920;2023-04-01T03:14:19;7.60;;;4.20;;
42518;SDS011;28147;47.520;18.920;2023-04-01T03:16:44;5.00;;;2.53;;
42518;SDS011;28147;47.520;18.920;2023-04-01T03:19:10;2.97;;;1.58;;
42518;SDS011;28147;47.520;18.920;2023-04-01T03:21:35;6.75;;;1.92;;
42518;SDS011;28147;47.520;18.920;2023-04-01T03:24:01;3.67;;;1.73;;
42518;SDS011;28147;47.520;18.920;2023-04-01T03:26:26;3.60;;;1.77;;
42518;SDS011;28147;47.520;18.920;2023-04-01T03:28:52;5.45;;;1.63;;
42518;SDS011;28147;47.520;18.920;2023-04-01T03:31:17;4.13;;;1.73;;
42518;SDS011;28147;47.520;18.920;2023-04-01T03:33:43;2.60;;;1.48;;
42518;SDS011;28147;47.520;18.920;2023-04-01T03:36:09;1.70;;;1.08;;
42518;SDS011;28147;47.520;18.920;2023-04-01T03:38:36;2.20;;;1.02;;
42518;SDS011;28147;47.520;18.920;2023-04-01T03:41:02;2.38;;;1.00;;
42518;SDS011;28147;47.520;18.920;2023-04-01T03:43:28;2.33;;;1.10;;
42518;SDS011;28147;47.520;18.920;2023-04-01T03:45:54;1.63;;;0.90;;
42518;SDS011;28147;47.520;18.920;2023-04-01T03:48:21;1.58;;;0.80;;
42518;SDS011;28147;47.520;18.920;2023-04-01T03:52:01;1.60;;;0.80;;
42518;SDS011;28147;47.520;18.920;2023-04-01T03:56:43;0.98;;;0.60;;
42518;SDS011;28147;47.520;18.920;2023-04-01T04:00:57;1.48;;;0.73;;
42518;SDS011;28147;47.520;18.920;2023-04-01T04:08:17;1.48;;;0.70;;
42518;SDS011;28147;47.520;18.920;2023-04-01T04:10:43;2.40;;;0.80;;
42518;SDS011;28147;47.520;18.920;2023-04-01T04:13:09;2.45;;;0.80;;
42518;SDS011;28147;47.520;18.920;2023-04-01T04:15:34;1.77;;;0.77;;
42518;SDS011;28147;47.520;18.920;2023-04-01T04:19:53;1.23;;;0.60;;
42518;SDS011;28147;47.520;18.920;2023-04-01T04:23:37;2.13;;;0.60;;
42518;SDS011;28147;47.520;18.920;2023-04-01T04:26:06;1.23;;;0.88;;
42518;SDS011;28147;47.520;18.920;2023-04-01T04:28:33;1.15;;;0.60;;
42518;SDS011;28147;47.520;18.920;2023-04-01T04:34:12;1.50;;;0.63;;
42518;SDS011;28147;47.520;18.920;2023-04-01T04:39:03;1.95;;;0.80;;
42518;SDS011;28147;47.520;18.920;2023-04-01T04:41:28;2.22;;;0.70;;
42518;SDS011;28147;47.520;18.920;2023-04-01T04:43:54;2.47;;;0.77;;
42518;SDS011;28147;47.520;18.920;2023-04-01T04:46:21;2.17;;;0.85;;
42518;SDS011;28147;47.520;18.920;2023-04-01T04:48:47;2.58;;;1.00;;
42518;SDS011;28147;47.520;18.920;2023-04-01T04:51:16;2.15;;;0.90;;
42518;SDS011;28147;47.520;18.920;2023-04-01T04:53:43;1.10;;;0.73;;
42518;SDS011;28147;47.520;18.920;2023-04-01T04:56:08;4.10;;;0.80;;
42518;SDS011;28147;47.520;18.920;2023-04-01T04:58:34;3.53;;;0.75;;
42518;SDS011;28147;47.520;18.920;2023-04-01T05:01:10;1.05;;;0.75;;
42518;SDS011;28147;47.520;18.920;2023-04-01T05:03:37;0.95;;;0.70;;
42518;SDS011;28147;47.520;18.920;2023-04-01T05:06:03;1.67;;;0.88;;
42518;SDS011;28147;47.520;18.920;2023-04-01T05:08:29;1.33;;;0.90;;
42518;SDS011;28147;47.520;18.920;2023-04-01T05:10:55;2.03;;;0.82;;
42518;SDS011;28147;47.520;18.920;2023-04-01T05:13:20;1.45;;;0.80;;
42518;SDS011;28147;47.520;18.920;2023-04-01T05:15:46;3.10;;;0.57;;
42518;SDS011;28147;47.520;18.920;2023-04-01T05:18:11;1.13;;;0.70;;
42518;SDS011;28147;47.520;18.920;2023-04-01T05:20:37;2.33;;;0.70;;
42518;SDS011;28147;47.520;18.920;2023-04-01T05:23:02;2.33;;;1.10;;
42518;SDS011;28147;47.520;18.920;2023-04-01T05:25:28;1.33;;;0.90;;
42518;SDS011;28147;47.520;18.920;2023-04-01T05:27:54;1.55;;;0.70;;
42518;SDS011;28147;47.520;18.920;2023-04-01T05:30:19;1.95;;;0.95;;
42518;SDS011;28147;47.520;18.920;2023-04-01T05:32:45;2.20;;;0.90;;
42518;SDS011;28147;47.520;18.920;2023-04-01T05:35:10;2.40;;;1.25;;
42518;SDS011;28147;47.520;18.920;2023-04-01T05:37:36;3.85;;;1.30;;
42518;SDS011;28147;47.520;18.920;2023-04-01T05:40:02;2.00;;;1.30;;
42518;SDS011;28147;47.520;18.920;2023-04-01T05:42:28;2.72;;;1.33;;
42518;SDS011;28147;47.520;18.920;2023-04-01T05:44:54;2.45;;;1.20;;
42518;SDS011;28147;47.520;18.920;2023-04-01T05:47:20;3.55;;;1.65;;
42518;SDS011;28147;47.520;18.920;2023-04-01T05:49:47;2.70;;;1.20;;
42518;SDS011;28147;47.520;18.920;2023-04-01T05:52:12;1.65;;;0.95;;
42518;SDS011;28147;47.520;18.920;2023-04-01T05:54:37;3.08;;;1.17;;
42518;SDS011;28147;47.520;18.920;2023-04-01T05:57:03;3.22;;;1.02;;
42518;SDS011;28147;47.520;18.920;2023-04-01T05:59:28;3.45;;;1.63;;
42518;SDS011;28147;47.520;18.920;2023-04-01T06:01:56;1.08;;;0.77;;
42518;SDS011;28147;47.520;18.920;2023-04-01T06:04:21;2.20;;;0.70;;
42518;SDS011;28147;47.520;18.920;2023-04-01T06:06:47;3.85;;;1.17;;
42518;SDS011;28147;47.520;18.920;2023-04-01T06:09:16;1.90;;;0.60;;
42518;SDS011;28147;47.520;18.920;2023-04-01T06:11:46;1.38;;;0.55;;
42518;SDS011;28147;47.520;18.920;2023-04-01T06:23:18;2.28;;;0.75;;
42518;SDS011;28147;47.520;18.920;2023-04-01T06:44:16;1.15;;;0.70;;
42518;SDS011;28147;47.520;18.920;2023-04-01T06:47:02;1.25;;;0.70;;
42518;SDS011;28147;47.520;18.920;2023-04-01T06:49:53;2.80;;;0.50;;
42518;SDS011;28147;47.520;18.920;2023-04-01T06:52:36;2.35;;;0.60;;
42518;SDS011;28147;47.520;18.920;2023-04-01T06:55:50;0.63;;;0.30;;
42518;SDS011;28147;47.520;18.920;2023-04-01T06:57:59;0.88;;;0.45;;
42518;SDS011;28147;47.520;18.920;2023-04-01T07:00:30;1.00;;;0.52;;
42518;SDS011;28147;47.520;18.920;2023-04-01T07:03:02;5.93;;;0.52;;
42518;SDS011;28147;47.520;18.920;2023-04-01T07:05:30;1.65;;;0.55;;
42518;SDS011;28147;47.520;18.920;2023-04-01T07:08:04;1.20;;;0.60;;
42518;SDS011;28147;47.520;18.920;2023-04-01T07:10:39;3.38;;;1.02;;
42518;SDS011;28147;47.520;18.920;2023-04-01T07:13:21;1.17;;;0.40;;
42518;SDS011;28147;47.520;18.920;2023-04-01T07:18:39;1.75;;;0.63;;
42518;SDS011;28147;47.520;18.920;2023-04-01T07:21:09;0.88;;;0.50;;
42518;SDS011;28147;47.520;18.920;2023-04-01T07:23:44;1.15;;;0.50;;
42518;SDS011;28147;47.520;18.920;2023-04-01T07:26:21;4.57;;;0.70;;
42518;SDS011;28147;47.520;18.920;2023-04-01T07:28:49;2.78;;;0.60;;
42518;SDS011;28147;47.520;18.920;2023-04-01T07:31:24;1.38;;;0.60;;
42518;SDS011;28147;47.520;18.920;2023-04-01T07:39:12;1.63;;;0.40;;
42518;SDS011;28147;47.520;18.920;2023-04-01T07:42:04;1.45;;;0.65;;
42518;SDS011;28147;47.520;18.920;2023-04-01T07:55:21;0.95;;;0.30;;
42518;SDS011;28147;47.520;18.920;2023-04-01T08:00:30;2.70;;;0.60;;
42518;SDS011;28147;47.520;18.920;2023-04-01T08:05:55;0.77;;;0.50;;
42518;SDS011;28147;47.520;18.920;2023-04-01T08:22:10;1.63;;;0.50;;
42518;SDS011;28147;47.520;18.920;2023-04-01T08:24:43;2.75;;;0.60;;
42518;SDS011;28147;47.520;18.920;2023-04-01T08:27:16;0.68;;;0.68;;
42518;SDS011;28147;47.520;18.920;2023-04-01T08:32:55;0.95;;;0.43;;
42518;SDS011;28147;47.520;18.920;2023-04-01T08:35:26;0.45;;;0.45;;
42518;SDS011;28147;47.520;18.920;2023-04-01T08:37:56;0.88;;;0.47;;
42518;SDS011;28147;47.520;18.920;2023-04-01T08:40:37;1.58;;;0.85;;
42518;SDS011;28147;47.520;18.920;2023-04-01T08:48:47;1.13;;;0.80;;
42518;SDS011;28147;47.520;18.920;2023-04-01T08:54:33;0.73;;;0.50;;
42518;SDS011;28147;47.520;18.920;2023-04-01T09:02:38;2.00;;;0.63;;
42518;SDS011;28147;47.520;18.920;2023-04-01T09:05:26;2.35;;;0.65;;
42518;SDS011;28147;47.520;18.920;2023-04-01T09:08:28;1.90;;;0.60;;
42518;SDS011;28147;47.520;18.920;2023-04-01T09:11:33;3.03;;;0.65;;
42518;SDS011;28147;47.520;18.920;2023-04-01T09:29:59;2.90;;;0.80;;
42518;SDS011;28147;47.520;18.920;2023-04-01T09:46:43;1.20;;;0.47;;
42518;SDS011;28147;47.520;18.920;2023-04-01T09:49:30;1.70;;;0.60;;
42518;SDS011;28147;47.520;18.920;2023-04-01T09:54:59;1.38;;;0.60;;
42518;SDS011;28147;47.520;18.920;2023-04-01T10:00:31;3.92;;;0.93;;
42518;SDS011;28147;47.520;18.920;2023-04-01T10:08:57;1.98;;;0.80;;
42518;SDS011;28147;47.520;18.920;2023-04-01T10:11:50;1.80;;;0.63;;
42518;SDS011;28147;47.520;18.920;2023-04-01T10:35:14;2.17;;;0.80;;
42518;SDS011;28147;47.520;18.920;2023-04-01T10:46:04;2.10;;;0.98;;
42518;SDS011;28147;47.520;18.920;2023-04-01T11:27:54;3.53;;;0.60;;
42518;SDS011;28147;47.520;18.920;2023-04-01T11:36:23;2.75;;;0.80;;
42518;SDS011;28147;47.520;18.920;2023-04-01T11:44:16;3.10;;;0.65;;
42518;SDS011;28147;47.520;18.920;2023-04-01T12:09:11;1.02;;;0.50;;
42518;SDS011;28147;47.520;18.920;2023-04-01T12:11:51;3.45;;;0.70;;
42518;SDS011;28147;47.520;18.920;2023-04-01T12:15:03;1.95;;;0.75;;
42518;SDS011;28147;47.520;18.920;2023-04-01T12:17:44;1.10;;;0.40;;
42518;SDS011;28147;47.520;18.920;2023-04-01T12:23:23;1.45;;;0.63;;
42518;SDS011;28147;47.520;18.920;2023-04-01T12:31:15;3.22;;;0.77;;
42518;SDS011;28147;47.520;18.920;2023-04-01T12:34:08;1.80;;;0.75;;
42518;SDS011;28147;47.520;18.920;2023-04-01T12:36:52;1.83;;;0.83;;
42518;SDS011;28147;47.520;18.920;2023-04-01T12:42:33;5.00;;;1.02;;
42518;SDS011;28147;47.520;18.920;2023-04-01T12:45:19;0.98;;;0.68;;
42518;SDS011;28147;47.520;18.920;2023-04-01T12:48:00;2.25;;;0.70;;
42518;SDS011;28147;47.520;18.920;2023-04-01T12:56:06;2.72;;;0.60;;
42518;SDS011;28147;47.520;18.920;2023-04-01T12:58:44;2.28;;;0.77;;
42518;SDS011;28147;47.520;18.920;2023-04-01T13:04:08;1.20;;;0.40;;
42518;SDS011;28147;47.520;18.920;2023-04-01T13:22:52;1.75;;;0.57;;
42518;SDS011;28147;47.520;18.920;2023-04-01T13:28:39;3.65;;;0.95;;
42518;SDS011;28147;47.520;18.920;2023-04-01T13:41:54;3.10;;;0.73;;
42518;SDS011;28147;47.520;18.920;2023-04-01T13:52:58;0.70;;;0.40;;
42518;SDS011;28147;47.520;18.920;2023-04-01T14:00:46;1.25;;;0.52;;
42518;SDS011;28147;47.520;18.920;2023-04-01T14:08:59;1.87;;;0.60;;
42518;SDS011;28147;47.520;18.920;2023-04-01T14:14:11;1.83;;;0.70;;
42518;SDS011;28147;47.520;18.920;2023-04-01T14:16:55;1.15;;;0.57;;
42518;SDS011;28147;47.520;18.920;2023-04-01T14:22:33;1.63;;;0.60;;
42518;SDS011;28147;47.520;18.920;2023-04-01T14:25:17;1.42;;;0.50;;
42518;SDS011;28147;47.520;18.920;2023-04-01T14:30:40;0.93;;;0.30;;
42518;SDS011;28147;47.520;18.920;2023-04-01T14:33:31;1.90;;;0.95;;
42518;SDS011;28147;47.520;18.920;2023-04-01T14:41:48;0.57;;;0.50;;
42518;SDS011;28147;47.520;18.920;2023-04-01T14:44:33;1.80;;;0.70;;
42518;SDS011;28147;47.520;18.920;2023-04-01T14:47:33;0.60;;;0.40;;
42518;SDS011;28147;47.520;18.920;2023-04-01T14:50:21;2.08;;;0.68;;
42518;SDS011;28147;47.520;18.920;2023-04-01T14:55:28;2.03;;;0.70;;
42518;SDS011;28147;47.520;18.920;2023-04-01T14:58:07;0.93;;;0.60;;
42518;SDS011;28147;47.520;18.920;2023-04-01T15:03:47;1.15;;;0.68;;
42518;SDS011;28147;47.520;18.920;2023-04-01T15:09:46;1.40;;;0.55;;
42518;SDS011;28147;47.520;18.920;2023-04-01T15:18:09;0.80;;;0.40;;
42518;SDS011;28147;47.520;18.920;2023-04-01T15:31:34;1.88;;;0.40;;
42518;SDS011;28147;47.520;18.920;2023-04-01T15:34:19;2.33;;;0.50;;
42518;SDS011;28147;47.520;18.920;2023-04-01T15:36:53;0.88;;;0.22;;
42518;SDS011;28147;47.520;18.920;2023-04-01T15:39:54;0.90;;;0.28;;
42518;SDS011;28147;47.520;18.920;2023-04-01T15:42:32;0.45;;;0.20;;
42518;SDS011;28147;47.520;18.920;2023-04-01T15:48:11;0.70;;;0.20;;
42518;SDS011;28147;47.520;18.920;2023-04-01T15:50:45;1.00;;;0.43;;
42518;SDS011;28147;47.520;18.920;2023-04-01T16:04:28;0.68;;;0.20;;
42518;SDS011;28147;47.520;18.920;2023-04-01T16:07:30;0.60;;;0.40;;
42518;SDS011;28147;47.520;18.920;2023-04-01T16:21:27;1.42;;;0.40;;
42518;SDS011;28147;47.520;18.920;2023-04-01T16:24:22;0.75;;;0.30;;
42518;SDS011;28147;47.520;18.920;2023-04-01T16:27:06;1.55;;;0.30;;
42518;SDS011;28147;47.520;18.920;2023-04-01T16:33:00;1.92;;;0.43;;
42518;SDS011;28147;47.520;18.920;2023-04-01T16:35:55;0.57;;;0.30;;
42518;SDS011;28147;47.520;18.920;2023-04-01T16:38:31;1.77;;;0.47;;
42518;SDS011;28147;47.520;18.920;2023-04-01T16:48:58;0.80;;;0.40;;
42518;SDS011;28147;47.520;18.920;2023-04-01T16:51:57;0.28;;;0.28;;
42518;SDS011;28147;47.520;18.920;2023-04-01T16:57:30;0.52;;;0.40;;
42518;SDS011;28147;47.520;18.920;2023-04-01T17:00:22;0.30;;;0.20;;
42518;SDS011;28147;47.520;18.920;2023-04-01T17:02:58;1.30;;;0.50;;
42518;SDS011;28147;47.520;18.920;2023-04-01T17:08:17;1.95;;;0.75;;
42518;SDS011;28147;47.520;18.920;2023-04-01T17:11:07;0.57;;;0.20;;
42518;SDS011;28147;47.520;18.920;2023-04-01T17:13:52;1.00;;;0.32;;
42518;SDS011;28147;47.520;18.920;2023-04-01T17:24:13;1.30;;;0.30;;
42518;SDS011;28147;47.520;18.920;2023-04-01T17:27:26;0.55;;;0.25;;
42518;SDS011;28147;47.520;18.920;2023-04-01T17:30:11;0.65;;;0.35;;
42518;SDS011;28147;47.520;18.920;2023-04-01T17:49:17;1.75;;;0.50;;
42518;SDS011;28147;47.520;18.920;2023-04-01T18:03:05;1.63;;;0.73;;
42518;SDS011;28147;47.520;18.920;2023-04-01T18:08:15;2.58;;;0.80;;
42518;SDS011;28147;47.520;18.920;2023-04-01T18:10:55;3.05;;;1.00;;
42518;SDS011;28147;47.520;18.920;2023-04-01T18:21:50;2.90;;;1.30;;
42518;SDS011;28147;47.520;18.920;2023-04-01T18:26:50;1.63;;;0.73;;
42518;SDS011;28147;47.520;18.920;2023-04-01T18:34:57;0.63;;;0.50;;
42518;SDS011;28147;47.520;18.920;2023-04-01T18:37:31;1.33;;;0.68;;
42518;SDS011;28147;47.520;18.920;2023-04-01T18:42:53;3.20;;;0.98;;
42518;SDS011;28147;47.520;18.920;2023-04-01T18:50:52;1.48;;;0.80;;
42518;SDS011;28147;47.520;18.920;2023-04-01T18:56:06;3.28;;;0.70;;
42518;SDS011;28147;47.520;18.920;2023-04-01T18:58:46;2.30;;;0.95;;
42518;SDS011;28147;47.520;18.920;2023-04-01T19:06:49;2.78;;;0.90;;
42518;SDS011;28147;47.520;18.920;2023-04-01T19:09:43;1.88;;;0.77;;
42518;SDS011;28147;47.520;18.920;2023-04-01T19:25:55;4.10;;;0.82;;
42518;SDS011;28147;47.520;18.920;2023-04-01T19:31:47;0.55;;;0.40;;
42518;SDS011;28147;47.520;18.920;2023-04-01T19:37:24;0.73;;;0.45;;
42518;SDS011;28147;47.520;18.920;2023-04-01T19:51:02;1.40;;;0.57;;
42518;SDS011;28147;47.520;18.920;2023-04-01T19:53:46;2.83;;;0.82;;
42518;SDS011;28147;47.520;18.920;2023-04-01T19:56:17;0.73;;;0.50;;
42518;SDS011;28147;47.520;18.920;2023-04-01T19:58:52;1.05;;;0.63;;
42518;SDS011;28147;47.520;18.920;2023-04-01T20:03:54;1.42;;;0.80;;
42518;SDS011;28147;47.520;18.920;2023-04-01T20:06:26;0.63;;;0.43;;
42518;SDS011;28147;47.520;18.920;2023-04-01T20:09:10;0.55;;;0.38;;
42518;SDS011;28147;47.520;18.920;2023-04-01T20:15:06;2.30;;;0.80;;
42518;SDS011;28147;47.520;18.920;2023-04-01T20:17:45;3.05;;;0.77;;
42518;SDS011;28147;47.520;18.920;2023-04-01T20:28:05;2.13;;;0.52;;
42518;SDS011;28147;47.520;18.920;2023-04-01T20:47:39;4.93;;;2.35;;
42518;SDS011;28147;47.520;18.920;2023-04-01T21:03:50;3.08;;;1.20;;
42518;SDS011;28147;47.520;18.920;2023-04-01T21:15:01;3.78;;;1.40;;
42518;SDS011;28147;47.520;18.920;2023-04-01T21:25:35;1.45;;;0.75;;
42518;SDS011;28147;47.520;18.920;2023-04-01T21:31:05;2.47;;;0.80;;
42518;SDS011;28147;47.520;18.920;2023-04-01T21:38:48;4.00;;;0.98;;
42518;SDS011;28147;47.520;18.920;2023-04-01T21:41:34;1.38;;;0.55;;
42518;SDS011;28147;47.520;18.920;2023-04-01T22:00:38;1.08;;;0.57;;
42518;SDS011;28147;47.520;18.920;2023-04-01T22:28:52;1.02;;;0.50;;
42518;SDS011;28147;47.520;18.920;2023-04-01T22:31:34;0.40;;;0.40;;
42518;SDS011;28147;47.520;18.920;2023-04-01T22:39:50;0.80;;;0.30;;
42518;SDS011;28147;47.520;18.920;2023-04-01T22:42:30;1.23;;;0.63;;
42518;SDS011;28147;47.520;18.920;2023-04-01T22:47:37;1.05;;;0.60;;
42518;SDS011;28147;47.520;18.920;2023-04-01T22:50:18;1.35;;;0.55;;
42518;SDS011;28147;47.520;18.920;2023-04-01T22:52:49;0.85;;;0.60;;
42518;SDS011;28147;47.520;18.920;2023-04-01T22:55:38;2.08;;;0.70;;
42518;SDS011;28147;47.520;18.920;2023-04-01T22:58:17;1.42;;;0.50;;
42518;SDS011;28147;47.520;18.920;2023-04-01T23:00:58;0.40;;;0.40;;
42518;SDS011;28147;47.520;18.920;2023-04-01T23:03:31;0.77;;;0.50;;
42518;SDS011;28147;47.520;18.920;2023-04-01T23:05:59;3.35;;;0.88;;
42518;SDS011;28147;47.520;18.920;2023-04-01T23:14:04;1.55;;;0.60;;
42518;SDS011;28147;47.520;18.920;2023-04-01T23:16:43;1.25;;;0.57;;
42518;SDS011;28147;47.520;18.920;2023-04-01T23:19:23;0.47;;;0.30;;
42518;SDS011;28147;47.520;18.920;2023-04-01T23:21:59;0.93;;;0.50;;
42518;SDS011;28147;47.520;18.920;2023-04-01T23:24:49;1.40;;;0.68;;
42518;SDS011;28147;47.520;18.920;2023-04-01T23:29:53;0.65;;;0.40;;
42518;SDS011;28147;47.520;18.920;2023-04-01T23:32:19;1.88;;;0.60;;
42518;SDS011;28147;47.520;18.920;2023-04-01T23:34:51;0.50;;;0.40;;
42518;SDS011;28147;47.520;18.920;2023-04-01T23:37:18;1.25;;;0.40;;
42518;SDS011;28147;47.520;18.920;2023-04-01T23:39:46;1.25;;;1.13;;
42518;SDS011;28147;47.520;18.920;2023-04-01T23:44:46;1.40;;;0.50;;
42518;SDS011;28147;47.520;18.920;2023-04-01T23:47:21;1.10;;;0.40;;
42518;SDS011;28147;47.520;18.920;2023-04-01T23:49:56;2.00;;;0.68;;
42518;SDS011;28147;47.520;18.920;2023-04-01T23:52:30;0.75;;;0.40;;
42518;SDS011;28147;47.520;18.920;2023-04-01T23:55:42;1.77;;;0.63;;
